Yuejianhang055 — 055 — position and weather

sailwx.info

Track history (hours):
 
Tides and Currents Weather Stations Pressure Air Temp Water Temp Dewpoint Dewpoint Depression Visibility Wind Speed Wind Dir Waves Ship Positions

Yuejianhang055

Last reported at 2017-Nov-18 13:21 UTC. Time now 2017-Dec-12 18:13 UTC.
Position N 22°54' E 113°24'.
Warning: this ship's position is 24 days out of date.

Length 76 m.

Type: Cargo ship. MMSI: 412474880.

Date/timePositionNaut miles runAvg speedWind from/ knotsBaromVisibWave heightAir tempDewpointWater temp
2017-Nov-18 13:21N 22°54' E 113°24'3 6.5
2017-Nov-18 12:57N 22°55' E 113°26'3 7.1
2017-Nov-18 12:30N 22°54' E 113°30'4 7.9
2017-Nov-18 12:00N 22°52' E 113°33'4 7.0
2017-Nov-18 11:27N 22°49' E 113°36'3 0.1
2017-Nov-17 10:31N 22°51' E 113°34'0 5.9
2017-Nov-17 10:30N 22°51' E 113°34'3 6.3
2017-Nov-17 10:00N 22°53' E 113°31'3 6.2
2017-Nov-17 09:30N 22°54' E 113°28'  
2017-Nov-13 01:48N 22°55' E 113°27'0 0.0
2017-Nov-13 01:12N 22°55' E 113°27'0 0.0
2017-Nov-13 01:00N 22°55' E 113°27'0 0.0
2017-Nov-13 00:30N 22°55' E 113°27'1 1.5
2017-Nov-12 23:59N 22°55' E 113°26'2 2.3
2017-Nov-12 23:20N 22°55' E 113°25'  
Track history (hours):
 
Tides and Currents Weather Stations Pressure Air Temp Water Temp Dewpoint Dewpoint Depression Visibility Wind Speed Wind Dir Waves Ship Positions

Yuejianhang055

Last reported at 2017-Nov-18 13:21 UTC. Time now 2017-Dec-12 18:13 UTC.
Position N 22°54' E 113°24'.
Warning: this ship's position is 24 days out of date.

Length 76 m.

Type: Cargo ship. MMSI: 412474880.

Date/timePositionNaut miles runAvg speedWind from/ knotsBaromVisibWave heightAir tempDewpointWater temp
2017-Nov-18 13:21N 22°54' E 113°24'3 6.5
2017-Nov-18 12:57N 22°55' E 113°26'3 7.1
2017-Nov-18 12:30N 22°54' E 113°30'4 7.9
2017-Nov-18 12:00N 22°52' E 113°33'4 7.0
2017-Nov-18 11:27N 22°49' E 113°36'3 0.1
2017-Nov-17 10:31N 22°51' E 113°34'0 5.9
2017-Nov-17 10:30N 22°51' E 113°34'3 6.3
2017-Nov-17 10:00N 22°53' E 113°31'3 6.2
2017-Nov-17 09:30N 22°54' E 113°28'  
2017-Nov-13 01:48N 22°55' E 113°27'0 0.0
2017-Nov-13 01:12N 22°55' E 113°27'0 0.0
2017-Nov-13 01:00N 22°55' E 113°27'0 0.0
2017-Nov-13 00:30N 22°55' E 113°27'1 1.5
2017-Nov-12 23:59N 22°55' E 113°26'2 2.3
2017-Nov-12 23:20N 22°55' E 113°25'  

Dump ship's entire track history